VOTR

Tiruchirapally Civil Airport

Tiruchirappally, India
TAF VOTR 242300Z 2500/2606 VRB02KT 6000 FEW016 SCT100 BECMG 2503/2504 29010KT BECMG 2509/2510 12010KT TEMPO 2512/2518 SCT016 FEW025CB BKN100 BECMG 2421/2422 VRB02KT BECMG 2603/2604 29010KT
Issued Valid From Valid To
Sep-24 @ 23:00 UTC
(2 hours ago)
Sep-25 @ 00:00 UTC
(an hour ago)
Sep-26 @ 06:00 UTC
(-1 days ago)
Sep-25 @ 00:00 to Sep-25 @ 03:00
TAF VOTR 242300Z 2500/2606 VRB02KT 6000 FEW016 SCT100
Wind Visibility Clouds
Variable at 2 knots 6,003 meters
  • Few at 1,600' AGL
  • Scattered at 10,000' AGL
Becoming Sep-24 @ 21:00 to Sep-26 @ 03:00
BECMG 2421/2422 VRB02KT
Wind Visibility Clouds
Variable at 2 knots 6,003 meters
  • Few at 1,600' AGL
  • Scattered at 10,000' AGL
Becoming Sep-25 @ 03:00 to Sep-25 @ 09:00
BECMG 2503/2504 29010KT
Wind Visibility Clouds
290° at 10 knots 6,003 meters
  • Few at 1,600' AGL
  • Scattered at 10,000' AGL
Becoming Sep-25 @ 09:00 to Sep-26 @ 06:00
BECMG 2509/2510 12010KT
Wind Visibility Clouds
120° at 10 knots 6,003 meters
  • Few at 1,600' AGL
  • Scattered at 10,000' AGL
Temporary Sep-25 @ 12:00 to Sep-25 @ 18:00
TEMPO 2512/2518 SCT016 FEW025CB BKN100
Clouds
  • Scattered at 1,600' AGL
  • Few at 2,500' AGL
  • Broken at 10,000' AGL
Becoming Sep-26 @ 03:00 to Sep-26 @ 06:00
BECMG 2603/2604 29010KT
Wind Visibility Clouds
290° at 10 knots 6,003 meters
  • Few at 1,600' AGL
  • Scattered at 10,000' AGL
TAF VOTR 242300Z 2500/2606 VRB02KT 6000 FEW016 SCT100 BECMG 2503/2504 29010KT BECMG 2509/2510 12010KT TEMPO 2512/2518 SCT016 FEW025CB BKN100 BECMG 2421/2422 VRB02KT BECMG 2603/2604 29010KT
Issued Sep-24 @ 23:00 UTC
(2 hours ago)
Valid From Sep-25 @ 00:00 UTC
(an hour ago)
Valid To Sep-26 @ 06:00 UTC
(-1 days ago)
Sep-25 @ 00:00 - Sep-25 @ 03:00
Wind Visibility
Variable at 2 knots 6,003 meters
Clouds
  • Few at 1,600' AGL
  • Scattered at 10,000' AGL
Becoming Sep-24 @ 21:00 - Sep-26 @ 03:00
Wind Visibility
Variable at 2 knots 6,003 meters
Clouds
  • Few at 1,600' AGL
  • Scattered at 10,000' AGL
Becoming Sep-25 @ 03:00 - Sep-25 @ 09:00
Wind Visibility
290° at 10 knots 6,003 meters
Clouds
  • Few at 1,600' AGL
  • Scattered at 10,000' AGL
Becoming Sep-25 @ 09:00 - Sep-26 @ 06:00
Wind Visibility
120° at 10 knots 6,003 meters
Clouds
  • Few at 1,600' AGL
  • Scattered at 10,000' AGL
Temporary Sep-25 @ 12:00 - Sep-25 @ 18:00
Clouds
  • Scattered at 1,600' AGL
  • Few at 2,500' AGL
  • Broken at 10,000' AGL
Becoming Sep-26 @ 03:00 - Sep-26 @ 06:00
Wind Visibility
290° at 10 knots 6,003 meters
Clouds
  • Few at 1,600' AGL
  • Scattered at 10,000' AGL